createdAt,value
2017-11-30T00:00:51.653Z,93.46
2017-11-30T00:01:54.571Z,93.51
2017-11-30T00:02:57.843Z,93.43
2017-11-30T00:04:00.769Z,93.16
2017-11-30T00:05:03.695Z,93.10
2017-11-30T00:06:06.689Z,93.24
2017-11-30T00:07:09.668Z,93.25
2017-11-30T00:08:12.608Z,93.46
2017-11-30T00:09:15.891Z,93.09
2017-11-30T00:10:18.946Z,93.16
2017-11-30T00:11:21.881Z,93.28
2017-11-30T00:12:25.125Z,93.35
2017-11-30T00:13:28.112Z,93.19
2017-11-30T00:14:31.081Z,93.38
2017-11-30T00:15:34.351Z,93.10
2017-11-30T00:16:37.307Z,93.09
2017-11-30T00:17:40.322Z,93.03
2017-11-30T00:18:43.287Z,92.82
2017-11-30T00:19:46.279Z,92.89
2017-11-30T00:20:49.257Z,92.78
2017-11-30T00:21:53.739Z,92.66
2017-11-30T00:22:56.654Z,93.04
2017-11-30T00:23:59.617Z,92.93
2017-11-30T00:25:02.592Z,93.01
2017-11-30T00:26:05.621Z,92.80
2017-11-30T00:27:08.621Z,92.93
2017-11-30T00:28:11.910Z,93.20
2017-11-30T00:29:14.822Z,93.26
2017-11-30T00:30:17.795Z,93.39
2017-11-30T00:31:20.753Z,93.33
2017-11-30T00:32:23.709Z,93.46
2017-11-30T00:33:26.764Z,93.42
2017-11-30T00:34:30.066Z,93.12
2017-11-30T00:35:33.035Z,93.05
2017-11-30T00:36:35.869Z,93.11
2017-11-30T00:37:38.736Z,93.08
2017-11-30T00:38:41.595Z,93.08
2017-11-30T00:39:44.498Z,92.89
2017-11-30T00:40:47.785Z,93.03
2017-11-30T00:41:50.730Z,92.59
2017-11-30T00:42:53.654Z,92.54
2017-11-30T00:43:56.576Z,92.18
2017-11-30T00:44:59.991Z,92.58
2017-11-30T00:46:02.925Z,92.76
2017-11-30T00:47:06.671Z,92.67
2017-11-30T00:48:09.691Z,92.37
2017-11-30T00:49:12.635Z,92.49
2017-11-30T00:50:15.621Z,92.90
2017-11-30T00:51:18.578Z,93.04
2017-11-30T00:52:21.525Z,93.08
2017-11-30T00:53:24.938Z,93.11
2017-11-30T00:54:27.860Z,93.15
2017-11-30T00:55:30.823Z,93.13
2017-11-30T00:56:33.758Z,93.01
2017-11-30T00:57:36.699Z,93.12
2017-11-30T00:58:39.647Z,93.00
2017-11-30T00:59:43.117Z,93.08
2017-11-30T01:00:46.068Z,92.90
2017-11-30T01:01:48.984Z,92.93
2017-11-30T01:02:51.919Z,93.01
2017-11-30T01:03:54.863Z,92.75
2017-11-30T01:04:57.770Z,92.94
2017-11-30T01:06:01.106Z,93.06
2017-11-30T01:07:04.209Z,93.19
2017-11-30T01:08:07.254Z,93.12
2017-11-30T01:09:10.837Z,92.83
2017-11-30T01:10:13.876Z,93.10
2017-11-30T01:11:16.801Z,92.82
2017-11-30T01:12:20.130Z,93.11
2017-11-30T01:13:23.038Z,93.17
2017-11-30T01:14:25.982Z,92.91
2017-11-30T01:15:28.949Z,93.01
2017-11-30T01:16:31.882Z,93.05
2017-11-30T01:17:35.130Z,92.83
2017-11-30T01:18:38.126Z,92.77
2017-11-30T01:19:41.635Z,92.92
2017-11-30T01:20:44.495Z,93.01
2017-11-30T01:21:47.351Z,92.89
2017-11-30T01:22:50.201Z,92.99
2017-11-30T01:23:53.478Z,92.95
2017-11-30T01:24:56.318Z,92.94
2017-11-30T01:25:59.148Z,92.74
2017-11-30T01:27:01.997Z,92.81
2017-11-30T01:28:04.824Z,92.77
2017-11-30T01:29:07.672Z,92.69
2017-11-30T01:30:11.018Z,92.95
2017-11-30T01:31:13.960Z,92.91
2017-11-30T01:32:16.867Z,92.92
2017-11-30T01:33:19.771Z,92.96
2017-11-30T01:34:22.660Z,93.01
2017-11-30T01:35:25.657Z,92.89
2017-11-30T01:36:28.998Z,92.47
2017-11-30T01:37:31.949Z,92.39
2017-11-30T01:38:34.860Z,92.30
2017-11-30T01:39:37.872Z,92.32
2017-11-30T01:40:40.776Z,92.23
2017-11-30T01:41:43.735Z,92.33
2017-11-30T01:42:46.635Z,92.25
2017-11-30T01:43:49.558Z,91.93
2017-11-30T01:44:52.497Z,92.08
2017-11-30T01:45:55.540Z,92.15
2017-11-30T01:46:58.467Z,92.26
2017-11-30T01:48:01.748Z,92.39
2017-11-30T01:49:04.731Z,92.65
2017-11-30T01:50:07.660Z,92.71
2017-11-30T01:51:10.606Z,92.64
2017-11-30T01:52:13.540Z,92.70
2017-11-30T01:53:16.470Z,92.64
2017-11-30T01:54:19.779Z,92.24
2017-11-30T01:55:22.774Z,92.12
2017-11-30T01:56:25.744Z,92.07
2017-11-30T01:57:28.664Z,92.26
2017-11-30T01:58:31.626Z,92.62
2017-11-30T01:59:34.578Z,92.60
2017-11-30T02:00:37.901Z,92.63
2017-11-30T02:01:40.829Z,92.31
2017-11-30T02:02:43.767Z,92.42
2017-11-30T02:03:46.853Z,92.38
2017-11-30T02:04:49.833Z,92.37
2017-11-30T02:05:52.817Z,92.34
2017-11-30T02:06:56.965Z,92.33
2017-11-30T02:07:59.947Z,92.18
2017-11-30T02:09:02.961Z,91.98
2017-11-30T02:10:05.938Z,92.04
2017-11-30T02:11:08.853Z,92.23
2017-11-30T02:12:11.808Z,92.41
2017-11-30T02:13:15.256Z,91.95
2017-11-30T02:14:18.328Z,91.55
2017-11-30T02:15:21.245Z,91.61
2017-11-30T02:16:24.248Z,91.46
2017-11-30T02:17:27.205Z,91.34
2017-11-30T02:18:30.147Z,91.14
2017-11-30T02:19:33.767Z,91.44
2017-11-30T02:20:36.830Z,91.50
2017-11-30T02:21:39.947Z,91.35
2017-11-30T02:22:42.836Z,91.40
2017-11-30T02:23:45.652Z,91.24
2017-11-30T02:24:48.441Z,90.67
2017-11-30T02:25:51.727Z,90.26
2017-11-30T02:26:54.556Z,90.43
2017-11-30T02:27:57.403Z,90.87
2017-11-30T02:29:00.314Z,91.06
2017-11-30T02:30:03.289Z,91.12
2017-11-30T02:31:06.218Z,90.50
2017-11-30T02:32:09.646Z,90.55
2017-11-30T02:33:12.562Z,90.62
2017-11-30T02:34:15.510Z,90.94
2017-11-30T02:35:19.423Z,91.18
2017-11-30T02:36:22.601Z,90.55
2017-11-30T02:37:25.870Z,90.90
2017-11-30T02:38:29.097Z,90.79
2017-11-30T02:39:32.083Z,90.94
2017-11-30T02:40:34.982Z,91.56
2017-11-30T02:41:37.844Z,91.43
2017-11-30T02:42:40.744Z,90.45
2017-11-30T02:43:43.686Z,91.23
2017-11-30T02:44:46.976Z,90.84
2017-11-30T02:45:49.904Z,90.80
2017-11-30T02:46:52.821Z,90.46
2017-11-30T02:47:55.827Z,90.56
2017-11-30T02:48:58.756Z,91.16
2017-11-30T02:50:01.733Z,91.30
2017-11-30T02:51:04.646Z,91.23
2017-11-30T02:52:07.650Z,90.72
2017-11-30T02:53:10.626Z,90.47
2017-11-30T02:54:13.574Z,90.59
2017-11-30T02:55:16.539Z,91.04
2017-11-30T02:56:19.458Z,91.65
2017-11-30T02:57:23.094Z,92.08
2017-11-30T02:58:26.288Z,91.79
2017-11-30T02:59:29.208Z,91.88
2017-11-30T03:00:32.156Z,91.99
2017-11-30T03:01:35.061Z,91.87
2017-11-30T03:02:37.993Z,91.61
2017-11-30T03:03:41.378Z,91.73
2017-11-30T03:04:45.138Z,91.78
2017-11-30T03:05:48.100Z,92.18
2017-11-30T03:06:51.010Z,91.50
2017-11-30T03:07:53.930Z,91.10
2017-11-30T03:08:56.851Z,91.56
2017-11-30T03:10:00.282Z,90.69
2017-11-30T03:11:03.262Z,90.54
2017-11-30T03:12:06.181Z,90.56
2017-11-30T03:13:09.168Z,90.97
2017-11-30T03:14:12.085Z,90.61
2017-11-30T03:15:15.071Z,90.58
2017-11-30T03:16:18.338Z,90.86
2017-11-30T03:17:21.243Z,91.17
2017-11-30T03:18:24.561Z,91.14
2017-11-30T03:19:27.693Z,90.91
2017-11-30T03:20:30.692Z,91.23
2017-11-30T03:21:33.594Z,91.08
2017-11-30T03:22:36.922Z,90.88
2017-11-30T03:23:39.749Z,90.52
2017-11-30T03:24:42.582Z,90.67
2017-11-30T03:25:45.419Z,90.93
2017-11-30T03:26:48.215Z,90.92
2017-11-30T03:27:51.119Z,91.02
2017-11-30T03:28:54.459Z,91.40
2017-11-30T03:29:57.370Z,91.32
2017-11-30T03:31:00.306Z,91.35
2017-11-30T03:32:03.275Z,91.71
2017-11-30T03:33:06.249Z,91.71
2017-11-30T03:34:09.164Z,91.67
2017-11-30T03:35:12.445Z,91.69
2017-11-30T03:36:15.370Z,91.72
2017-11-30T03:37:18.334Z,90.89
2017-11-30T03:38:21.243Z,90.59
2017-11-30T03:39:24.153Z,90.90
2017-11-30T03:40:27.083Z,90.77
2017-11-30T03:41:30.444Z,90.61
2017-11-30T03:42:33.372Z,90.01
2017-11-30T03:43:36.272Z,90.37
2017-11-30T03:44:39.442Z,90.74
2017-11-30T03:45:42.613Z,91.08
2017-11-30T03:46:46.065Z,91.38
2017-11-30T03:47:49.704Z,91.42
2017-11-30T03:48:52.868Z,90.98
2017-11-30T03:49:55.741Z,91.41
2017-11-30T03:50:58.595Z,91.42
2017-11-30T03:52:01.450Z,91.43
2017-11-30T03:53:04.314Z,91.54
2017-11-30T03:54:07.626Z,91.65
2017-11-30T03:55:10.650Z,91.89
2017-11-30T03:56:13.548Z,91.73
2017-11-30T03:57:16.468Z,91.30
2017-11-30T03:58:19.361Z,91.31
2017-11-30T03:59:22.289Z,91.46
2017-11-30T04:00:25.580Z,91.49
2017-11-30T04:01:28.461Z,90.71
2017-11-30T04:02:31.372Z,90.93
2017-11-30T04:03:34.286Z,90.55
2017-11-30T04:04:37.309Z,90.99
2017-11-30T04:05:40.247Z,91.64
2017-11-30T04:06:43.494Z,91.63
2017-11-30T04:07:46.399Z,91.79
2017-11-30T04:08:49.365Z,91.63
2017-11-30T04:09:52.631Z,91.54
2017-11-30T04:10:55.607Z,91.50
2017-11-30T04:11:58.673Z,91.39
2017-11-30T04:13:02.022Z,91.03
2017-11-30T04:14:04.920Z,90.76
2017-11-30T04:15:07.875Z,90.63
2017-11-30T04:16:10.855Z,90.50
2017-11-30T04:17:13.850Z,91.04
2017-11-30T04:18:16.837Z,91.25
2017-11-30T04:19:19.783Z,90.78
2017-11-30T04:20:22.684Z,90.33
2017-11-30T04:21:25.616Z,90.55
2017-11-30T04:22:28.566Z,90.11
2017-11-30T04:23:31.982Z,89.89
2017-11-30T04:24:34.886Z,90.04
2017-11-30T04:25:37.797Z,90.56
2017-11-30T04:26:40.745Z,91.17
2017-11-30T04:27:43.681Z,91.35
2017-11-30T04:28:46.607Z,91.36
2017-11-30T04:29:49.963Z,91.39
2017-11-30T04:30:52.780Z,91.43
2017-11-30T04:31:55.843Z,90.80
2017-11-30T04:32:58.673Z,90.59
2017-11-30T04:34:01.800Z,90.72
2017-11-30T04:35:04.612Z,90.81
2017-11-30T04:36:07.864Z,90.92
2017-11-30T04:37:11.078Z,90.99
2017-11-30T04:38:14.316Z,90.84
2017-11-30T04:39:17.581Z,90.86
2017-11-30T04:40:20.751Z,90.88
2017-11-30T04:41:23.688Z,90.72
2017-11-30T04:42:26.656Z,90.56
2017-11-30T04:43:29.613Z,90.42
2017-11-30T04:44:32.554Z,90.24
2017-11-30T04:45:35.371Z,90.51
2017-11-30T04:46:38.424Z,90.26
2017-11-30T04:47:41.360Z,90.93
2017-11-30T04:48:44.345Z,90.69
2017-11-30T04:49:47.303Z,90.81
2017-11-30T04:50:50.237Z,90.41
2017-11-30T04:51:53.272Z,91.00
2017-11-30T04:52:56.775Z,90.77
2017-11-30T04:53:59.856Z,91.12
2017-11-30T04:55:02.818Z,90.75
2017-11-30T04:56:05.765Z,91.06
2017-11-30T04:57:08.776Z,90.52
2017-11-30T04:58:11.711Z,90.04
2017-11-30T04:59:15.075Z,89.71
2017-11-30T05:00:18.048Z,89.43
2017-11-30T05:01:21.057Z,89.39
2017-11-30T05:02:24.009Z,89.37
2017-11-30T05:03:26.954Z,89.10
2017-11-30T05:04:29.921Z,88.94
2017-11-30T05:05:33.225Z,89.22
2017-11-30T05:06:36.248Z,89.15
2017-11-30T05:07:39.368Z,89.63
2017-11-30T05:08:42.465Z,89.81
2017-11-30T05:09:45.638Z,90.15
2017-11-30T05:10:48.575Z,89.39
2017-11-30T05:11:51.954Z,89.19
2017-11-30T05:12:54.921Z,89.00
2017-11-30T05:13:57.877Z,88.92
2017-11-30T05:15:00.841Z,89.29
2017-11-30T05:16:03.803Z,89.02
2017-11-30T05:17:06.727Z,88.77
2017-11-30T05:18:10.202Z,88.70
2017-11-30T05:19:13.182Z,88.25
2017-11-30T05:20:16.145Z,88.41
2017-11-30T05:21:19.113Z,89.67
2017-11-30T05:22:22.087Z,90.12
2017-11-30T05:23:25.019Z,90.16
2017-11-30T05:24:28.404Z,89.83
2017-11-30T05:25:31.403Z,90.19
2017-11-30T05:26:34.384Z,90.07
2017-11-30T05:27:37.347Z,89.70
2017-11-30T05:28:40.379Z,89.94
2017-11-30T05:29:43.332Z,90.34
2017-11-30T05:30:46.688Z,90.15
2017-11-30T05:31:49.625Z,89.86
2017-11-30T05:32:52.607Z,89.58
2017-11-30T05:33:55.617Z,89.44
2017-11-30T05:34:58.690Z,89.66
2017-11-30T05:36:01.675Z,89.04
2017-11-30T05:37:05.079Z,89.54
2017-11-30T05:38:07.997Z,89.20
2017-11-30T05:39:10.930Z,89.04
2017-11-30T05:40:13.861Z,88.95
2017-11-30T05:41:16.883Z,89.09
2017-11-30T05:42:20.356Z,89.80
2017-11-30T05:43:23.904Z,89.88
2017-11-30T05:44:26.883Z,89.75
2017-11-30T05:45:29.828Z,90.01
2017-11-30T05:46:32.771Z,90.12
2017-11-30T05:47:35.722Z,90.35
2017-11-30T05:48:38.717Z,89.85
2017-11-30T05:49:42.056Z,90.81
2017-11-30T05:50:45.010Z,90.96
2017-11-30T05:51:48.355Z,89.99
2017-11-30T05:52:51.362Z,90.29
2017-11-30T05:53:54.307Z,89.39
2017-11-30T05:54:57.299Z,88.94
2017-11-30T05:56:01.609Z,88.84
2017-11-30T05:57:04.517Z,89.26
2017-11-30T05:58:07.537Z,88.62
2017-11-30T05:59:10.531Z,89.29
2017-11-30T06:00:13.455Z,89.97
2017-11-30T06:01:16.343Z,88.96
2017-11-30T06:02:19.180Z,89.49
2017-11-30T06:03:22.038Z,89.69
2017-11-30T06:04:24.915Z,90.62
2017-11-30T06:05:27.832Z,89.92
2017-11-30T06:06:30.705Z,90.22
2017-11-30T06:07:34.039Z,90.62
2017-11-30T06:08:37.469Z,90.10
2017-11-30T06:09:40.327Z,89.29
2017-11-30T06:10:43.320Z,89.13
2017-11-30T06:11:46.174Z,89.64
2017-11-30T06:12:49.630Z,89.27
2017-11-30T06:13:52.956Z,89.66
2017-11-30T06:14:55.986Z,89.75
2017-11-30T06:15:58.950Z,90.41
2017-11-30T06:17:01.887Z,90.89
2017-11-30T06:18:05.139Z,91.27
2017-11-30T06:19:08.081Z,91.28
2017-11-30T06:20:11.511Z,90.95
2017-11-30T06:21:14.508Z,90.92
2017-11-30T06:22:17.442Z,90.94
2017-11-30T06:23:21.047Z,90.16
2017-11-30T06:24:23.995Z,89.25
2017-11-30T06:25:26.970Z,89.25
2017-11-30T06:26:29.932Z,88.47
2017-11-30T06:27:32.908Z,87.75
2017-11-30T06:28:35.861Z,87.54
2017-11-30T06:29:38.720Z,88.08
2017-11-30T06:30:42.215Z,88.64
2017-11-30T06:31:45.553Z,89.06
2017-11-30T06:32:48.520Z,88.45
2017-11-30T06:33:51.696Z,88.19
2017-11-30T06:34:55.046Z,87.85
2017-11-30T06:35:58.183Z,87.63
2017-11-30T06:37:01.255Z,88.82
2017-11-30T06:38:04.755Z,88.63
2017-11-30T06:39:07.841Z,88.21
2017-11-30T06:40:10.831Z,87.84
2017-11-30T06:41:14.008Z,87.69
2017-11-30T06:42:17.470Z,88.26
2017-11-30T06:43:20.575Z,88.92
2017-11-30T06:44:23.995Z,88.40
2017-11-30T06:45:26.974Z,88.69
2017-11-30T06:46:30.097Z,88.71
2017-11-30T06:47:33.120Z,88.42
2017-11-30T06:48:36.233Z,88.16
2017-11-30T06:49:39.726Z,88.09
2017-11-30T06:50:42.831Z,89.01
2017-11-30T06:51:45.954Z,88.39
2017-11-30T06:52:48.994Z,88.25
2017-11-30T06:53:51.981Z,88.38
2017-11-30T06:54:54.929Z,88.60
2017-11-30T06:55:58.536Z,89.13
2017-11-30T06:57:02.087Z,88.08
2017-11-30T06:58:05.075Z,87.40
2017-11-30T06:59:08.008Z,88.33
2017-11-30T07:00:11.032Z,88.48
2017-11-30T07:01:14.050Z,88.35
2017-11-30T07:02:17.486Z,88.05
2017-11-30T07:03:20.565Z,88.36
2017-11-30T07:04:23.514Z,88.18
2017-11-30T07:05:26.467Z,88.33
2017-11-30T07:06:29.446Z,88.88
2017-11-30T07:07:32.442Z,89.01
2017-11-30T07:08:35.726Z,88.96
2017-11-30T07:09:38.703Z,88.65
2017-11-30T07:10:41.825Z,88.60
2017-11-30T07:11:44.982Z,88.47
2017-11-30T07:12:47.919Z,88.74
2017-11-30T07:13:50.888Z,88.75
2017-11-30T07:14:54.334Z,88.55
2017-11-30T07:15:57.312Z,88.04
2017-11-30T07:17:00.368Z,88.84
2017-11-30T07:18:04.102Z,87.89
2017-11-30T07:19:07.065Z,88.50
2017-11-30T07:20:09.969Z,87.35
2017-11-30T07:21:13.311Z,87.06
2017-11-30T07:22:16.294Z,86.80
2017-11-30T07:23:19.224Z,88.09
2017-11-30T07:24:22.090Z,85.58
2017-11-30T07:25:25.013Z,86.03
2017-11-30T07:26:27.876Z,86.31
2017-11-30T07:27:31.421Z,85.84
2017-11-30T07:28:34.519Z,86.51
2017-11-30T07:29:37.588Z,86.20
2017-11-30T07:30:40.552Z,86.52
2017-11-30T07:31:43.464Z,86.08
2017-11-30T07:32:46.436Z,85.24
2017-11-30T07:33:49.833Z,85.39
2017-11-30T07:34:52.746Z,85.29
2017-11-30T07:35:55.632Z,85.80
2017-11-30T07:36:58.605Z,86.32
2017-11-30T07:38:01.531Z,86.34
2017-11-30T07:39:05.196Z,85.77
2017-11-30T07:40:08.593Z,85.60
2017-11-30T07:41:12.590Z,84.97
2017-11-30T07:42:16.782Z,85.57
2017-11-30T07:43:19.790Z,85.31
2017-11-30T07:44:22.748Z,85.64
2017-11-30T07:45:25.691Z,85.13
2017-11-30T07:46:29.054Z,85.70
2017-11-30T07:47:31.951Z,85.52
2017-11-30T07:48:34.873Z,86.11
2017-11-30T07:49:37.750Z,85.77
2017-11-30T07:50:40.728Z,86.39
2017-11-30T07:51:43.699Z,86.11
2017-11-30T07:52:46.640Z,86.27
2017-11-30T07:53:49.589Z,85.71
2017-11-30T07:54:52.548Z,85.26
2017-11-30T07:55:56.139Z,85.17
2017-11-30T07:56:59.148Z,85.79
2017-11-30T07:58:02.725Z,85.50
2017-11-30T07:59:06.089Z,85.42
2017-11-30T08:00:09.109Z,85.13
2017-11-30T08:01:12.393Z,85.87
2017-11-30T08:02:15.474Z,86.54
2017-11-30T08:03:18.428Z,87.68
2017-11-30T08:04:21.837Z,87.61
2017-11-30T08:05:24.938Z,87.34
2017-11-30T08:06:27.953Z,86.41
2017-11-30T08:07:31.258Z,85.68
2017-11-30T08:08:34.776Z,86.15
2017-11-30T08:09:37.849Z,87.27
2017-11-30T08:10:41.474Z,87.11
2017-11-30T08:11:44.553Z,86.84
2017-11-30T08:12:47.540Z,87.06
2017-11-30T08:13:50.484Z,87.14
2017-11-30T08:14:53.961Z,86.83
2017-11-30T08:15:57.022Z,88.11
2017-11-30T08:17:00.460Z,88.50
2017-11-30T08:18:03.441Z,89.11
2017-11-30T08:19:06.463Z,89.12
2017-11-30T08:20:09.493Z,88.95
2017-11-30T08:21:12.449Z,88.28
2017-11-30T08:22:15.358Z,89.22
2017-11-30T08:23:18.881Z,88.99
2017-11-30T08:24:21.899Z,89.76
2017-11-30T08:25:24.970Z,90.94
2017-11-30T08:26:28.031Z,90.99
2017-11-30T08:27:30.977Z,91.54
2017-11-30T08:28:34.038Z,90.67
2017-11-30T08:29:37.371Z,91.99
2017-11-30T08:30:40.408Z,91.04
2017-11-30T08:31:43.514Z,90.50
2017-11-30T08:32:46.400Z,90.77
2017-11-30T08:33:49.333Z,90.32
2017-11-30T08:34:52.298Z,90.27
2017-11-30T08:35:55.617Z,90.76
2017-11-30T08:36:58.501Z,90.90
2017-11-30T08:38:01.545Z,90.80
2017-11-30T08:39:04.509Z,90.21
2017-11-30T08:40:07.444Z,89.75
2017-11-30T08:41:10.318Z,90.33
2017-11-30T08:42:13.730Z,90.85
2017-11-30T08:43:16.691Z,90.45
2017-11-30T08:44:19.784Z,90.29
2017-11-30T08:45:22.722Z,90.39
2017-11-30T08:46:25.681Z,89.23
2017-11-30T08:47:28.719Z,89.73
2017-11-30T08:48:32.011Z,89.96
2017-11-30T08:49:35.069Z,90.03
2017-11-30T08:50:38.231Z,89.35
2017-11-30T08:51:41.799Z,90.01
2017-11-30T08:52:44.668Z,90.00
2017-11-30T08:53:47.559Z,89.91
2017-11-30T08:54:50.812Z,90.75
2017-11-30T08:55:53.793Z,89.41
2017-11-30T08:56:57.190Z,87.68
2017-11-30T08:58:00.014Z,89.74
2017-11-30T08:59:03.033Z,89.40
2017-11-30T09:00:05.945Z,89.78
2017-11-30T09:01:10.023Z,88.53
2017-11-30T09:02:13.045Z,88.36
2017-11-30T09:03:16.044Z,88.61
2017-11-30T09:04:19.040Z,89.43
2017-11-30T09:05:22.034Z,84.12
2017-11-30T09:06:25.112Z,76.90
2017-11-30T09:07:28.598Z,85.75
2017-11-30T09:08:31.652Z,89.00
2017-11-30T09:09:34.861Z,89.73
2017-11-30T09:10:38.461Z,90.25
2017-11-30T09:11:42.128Z,90.86
2017-11-30T09:12:44.853Z,91.09
2017-11-30T09:13:48.022Z,90.76
2017-11-30T09:14:50.645Z,90.60
2017-11-30T09:15:53.499Z,89.56
2017-11-30T09:16:56.340Z,89.61
2017-11-30T09:17:58.948Z,90.33
2017-11-30T09:19:01.536Z,90.47
2017-11-30T09:20:04.635Z,90.86
2017-11-30T09:21:07.281Z,91.35
2017-11-30T09:22:09.900Z,91.16
2017-11-30T09:23:12.613Z,91.02
2017-11-30T09:24:15.223Z,88.91
2017-11-30T09:25:18.003Z,89.96
2017-11-30T09:26:21.022Z,90.25
2017-11-30T09:27:23.797Z,90.13
2017-11-30T09:28:26.520Z,89.09
2017-11-30T09:29:29.202Z,88.93
2017-11-30T09:30:31.856Z,88.97
2017-11-30T09:31:34.637Z,89.56
2017-11-30T09:32:37.692Z,89.74
2017-11-30T09:33:40.325Z,88.22
2017-11-30T09:34:43.036Z,88.72
2017-11-30T09:35:46.053Z,89.11
2017-11-30T09:36:48.877Z,88.93
2017-11-30T09:37:51.518Z,88.46
2017-11-30T09:38:54.367Z,88.94
2017-11-30T09:39:57.078Z,88.20
2017-11-30T09:40:59.837Z,88.36
2017-11-30T09:42:02.584Z,88.62
2017-11-30T09:43:05.311Z,87.13
2017-11-30T09:44:08.682Z,86.48
2017-11-30T09:45:11.369Z,87.34
2017-11-30T09:46:14.049Z,87.72
2017-11-30T09:47:16.743Z,87.26
2017-11-30T09:48:19.428Z,86.61
2017-11-30T09:49:22.219Z,87.08
2017-11-30T09:50:25.319Z,87.89
2017-11-30T09:51:28.175Z,87.94
2017-11-30T09:52:30.816Z,88.32
2017-11-30T09:53:33.507Z,88.46
2017-11-30T09:54:36.193Z,87.40
2017-11-30T09:55:38.885Z,87.64
2017-11-30T09:56:42.983Z,87.53
2017-11-30T09:57:45.782Z,87.88
2017-11-30T09:58:48.515Z,87.46
2017-11-30T09:59:51.273Z,87.99
2017-11-30T10:00:53.871Z,88.44
2017-11-30T10:01:56.723Z,87.12
2017-11-30T10:02:59.855Z,87.52
2017-11-30T10:04:02.676Z,88.46
2017-11-30T10:05:05.382Z,87.57
2017-11-30T10:06:08.042Z,87.65
2017-11-30T10:07:10.671Z,88.50
2017-11-30T10:08:13.359Z,88.49
2017-11-30T10:09:16.012Z,88.26
2017-11-30T10:10:18.804Z,88.41
2017-11-30T10:11:21.603Z,86.48
2017-11-30T10:12:24.334Z,85.14
2017-11-30T10:13:27.100Z,87.23
2017-11-30T10:14:30.413Z,87.14
2017-11-30T10:15:33.063Z,86.94
2017-11-30T10:16:35.845Z,87.42
2017-11-30T10:17:38.955Z,87.88
2017-11-30T10:18:41.911Z,88.40
2017-11-30T10:19:44.659Z,88.43
2017-11-30T10:20:47.811Z,88.35
2017-11-30T10:21:50.492Z,89.04
2017-11-30T10:22:53.168Z,89.31
2017-11-30T10:23:55.826Z,89.16
2017-11-30T10:24:58.534Z,89.01
2017-11-30T10:26:01.224Z,89.04
2017-11-30T10:27:04.304Z,89.65
2017-11-30T10:28:06.943Z,89.69
2017-11-30T10:29:10.235Z,89.84
2017-11-30T10:30:13.576Z,89.72
2017-11-30T10:31:16.294Z,89.49
2017-11-30T10:32:19.040Z,89.37
2017-11-30T10:33:21.681Z,89.04
2017-11-30T10:34:24.348Z,89.11
2017-11-30T10:35:27.010Z,89.41
2017-11-30T10:36:29.724Z,89.23
2017-11-30T10:37:32.384Z,89.01
2017-11-30T10:38:35.319Z,88.60
2017-11-30T10:39:38.066Z,88.67
2017-11-30T10:40:40.981Z,89.30
2017-11-30T10:41:43.638Z,88.81
2017-11-30T10:42:46.397Z,88.75
2017-11-30T10:43:49.073Z,89.67
2017-11-30T10:44:52.150Z,90.33
2017-11-30T10:45:54.828Z,90.00
2017-11-30T10:46:57.503Z,89.95
2017-11-30T10:48:00.154Z,89.90
2017-11-30T10:49:02.822Z,89.44
2017-11-30T10:50:05.557Z,89.51
2017-11-30T10:51:08.527Z,89.86
2017-11-30T10:52:11.203Z,91.01
2017-11-30T10:53:13.867Z,90.08
2017-11-30T10:54:16.674Z,90.75
2017-11-30T10:55:19.371Z,90.54
2017-11-30T10:56:22.804Z,90.35
2017-11-30T10:57:25.759Z,90.47
2017-11-30T10:58:28.480Z,90.87
2017-11-30T10:59:31.203Z,90.45
2017-11-30T11:00:33.860Z,90.40
2017-11-30T11:01:36.580Z,90.64
2017-11-30T11:02:39.796Z,90.09
2017-11-30T11:03:42.856Z,90.50
2017-11-30T11:04:45.640Z,90.44
2017-11-30T11:05:48.355Z,90.16
2017-11-30T11:06:51.101Z,89.45
2017-11-30T11:07:53.773Z,88.90
2017-11-30T11:08:56.463Z,88.87
2017-11-30T11:09:59.634Z,89.45
2017-11-30T11:11:02.324Z,90.22
2017-11-30T11:12:05.089Z,90.23
2017-11-30T11:13:07.698Z,89.78
2017-11-30T11:14:10.990Z,90.20
2017-11-30T11:15:13.745Z,91.26
2017-11-30T11:16:16.824Z,90.94
2017-11-30T11:17:19.586Z,90.32
2017-11-30T11:18:22.299Z,90.92
2017-11-30T11:19:25.008Z,91.26
2017-11-30T11:20:27.786Z,91.73
2017-11-30T11:21:30.473Z,91.67
2017-11-30T11:22:33.653Z,91.94
2017-11-30T11:23:36.618Z,91.70
2017-11-30T11:24:39.594Z,91.75
2017-11-30T11:25:42.563Z,92.51
2017-11-30T11:26:45.518Z,92.93
2017-11-30T11:27:48.567Z,93.25
2017-11-30T11:28:51.912Z,93.16
2017-11-30T11:29:55.702Z,93.17
2017-11-30T11:30:58.700Z,92.97
2017-11-30T11:32:01.696Z,93.26
2017-11-30T11:33:04.654Z,93.66
2017-11-30T11:34:07.623Z,93.76
2017-11-30T11:35:10.907Z,93.97
2017-11-30T11:36:13.941Z,94.13
2017-11-30T11:37:16.918Z,94.23
2017-11-30T11:38:19.902Z,94.23
2017-11-30T11:39:22.895Z,94.22
2017-11-30T11:40:25.859Z,94.26
2017-11-30T11:41:29.153Z,93.90
2017-11-30T11:42:32.169Z,94.02
2017-11-30T11:43:35.409Z,94.09
2017-11-30T11:44:38.358Z,94.15
2017-11-30T11:45:41.315Z,94.32
2017-11-30T11:46:44.290Z,94.28
2017-11-30T11:47:47.566Z,94.28
2017-11-30T11:48:50.514Z,94.25
2017-11-30T11:49:53.522Z,94.05
2017-11-30T11:50:57.529Z,94.12
2017-11-30T11:52:00.475Z,93.97
2017-11-30T11:53:03.507Z,93.81
2017-11-30T11:54:06.813Z,93.79
2017-11-30T11:55:09.879Z,93.27
2017-11-30T11:56:12.904Z,93.21
2017-11-30T11:57:15.922Z,93.10
2017-11-30T11:58:18.921Z,93.19
2017-11-30T11:59:22.151Z,93.21
2017-11-30T12:00:25.612Z,93.09
2017-11-30T12:01:28.500Z,93.16
2017-11-30T12:02:31.622Z,93.34
2017-11-30T12:03:34.646Z,93.40
2017-11-30T12:04:37.657Z,93.58
2017-11-30T12:05:40.611Z,93.59
2017-11-30T12:06:43.652Z,93.54
2017-11-30T12:07:46.613Z,93.29
2017-11-30T12:08:49.584Z,93.21
2017-11-30T12:09:52.571Z,93.38
2017-11-30T12:10:55.536Z,93.17
2017-11-30T12:11:58.786Z,93.49
2017-11-30T12:13:02.079Z,93.57
2017-11-30T12:14:05.337Z,93.63
2017-11-30T12:15:08.304Z,93.65
2017-11-30T12:16:11.353Z,93.75
2017-11-30T12:17:14.316Z,93.66
2017-11-30T12:18:17.590Z,93.72
2017-11-30T12:19:20.571Z,93.62
2017-11-30T12:20:23.506Z,93.49
2017-11-30T12:21:26.495Z,93.70
2017-11-30T12:22:29.490Z,93.62
2017-11-30T12:23:32.502Z,93.53
2017-11-30T12:24:35.733Z,93.03
2017-11-30T12:25:38.747Z,93.26
2017-11-30T12:26:41.707Z,93.40
2017-11-30T12:27:44.672Z,93.65
2017-11-30T12:28:47.690Z,93.71
2017-11-30T12:29:50.749Z,93.17
2017-11-30T12:30:54.159Z,93.21
2017-11-30T12:31:57.112Z,92.57
2017-11-30T12:33:00.230Z,92.48
2017-11-30T12:34:03.179Z,92.48
2017-11-30T12:35:06.179Z,91.92
2017-11-30T12:36:09.170Z,91.43
2017-11-30T12:37:12.435Z,91.66
2017-11-30T12:38:15.571Z,91.83
2017-11-30T12:39:18.596Z,91.76
2017-11-30T12:40:21.641Z,91.50
2017-11-30T12:41:24.599Z,91.45
2017-11-30T12:42:27.687Z,91.52
2017-11-30T12:43:31.068Z,91.73
2017-11-30T12:44:34.013Z,92.02
2017-11-30T12:45:37.032Z,92.15
2017-11-30T12:46:40.029Z,91.88
2017-11-30T12:47:43.167Z,91.70
2017-11-30T12:48:46.267Z,91.88
2017-11-30T12:49:49.907Z,92.04
2017-11-30T12:50:53.133Z,92.40
2017-11-30T12:51:56.128Z,92.49
2017-11-30T12:52:59.189Z,92.08
2017-11-30T12:54:02.212Z,92.00
2017-11-30T12:55:05.289Z,91.38
2017-11-30T12:56:08.767Z,91.56
2017-11-30T12:57:12.272Z,91.60
2017-11-30T12:58:15.312Z,91.77
2017-11-30T12:59:18.281Z,92.35
2017-11-30T13:00:21.331Z,92.37
2017-11-30T13:01:24.276Z,92.44
2017-11-30T13:02:27.610Z,91.91
2017-11-30T13:03:30.663Z,92.00
2017-11-30T13:04:33.754Z,91.87
2017-11-30T13:05:37.452Z,92.03
2017-11-30T13:06:40.521Z,91.91
2017-11-30T13:07:43.497Z,92.15
2017-11-30T13:08:46.519Z,92.64
2017-11-30T13:09:49.466Z,92.47
2017-11-30T13:10:52.494Z,92.49
2017-11-30T13:11:55.520Z,92.56
2017-11-30T13:12:58.463Z,92.42
2017-11-30T13:14:01.592Z,92.62
2017-11-30T13:15:05.089Z,92.47
2017-11-30T13:16:08.182Z,92.55
2017-11-30T13:17:11.185Z,92.62
2017-11-30T13:18:14.272Z,92.91
2017-11-30T13:19:18.050Z,92.87
2017-11-30T13:20:21.110Z,92.00
2017-11-30T13:21:24.537Z,92.33
2017-11-30T13:22:27.534Z,92.30
2017-11-30T13:23:31.970Z,92.58
2017-11-30T13:24:37.323Z,92.65
2017-11-30T13:25:40.777Z,92.75
2017-11-30T13:26:45.585Z,92.79
2017-11-30T13:27:50.448Z,92.61
2017-11-30T13:28:53.526Z,92.92
2017-11-30T13:29:57.718Z,92.74
2017-11-30T13:31:00.680Z,93.03
2017-11-30T13:32:03.706Z,92.94